Oud-Turnhout, Belgium
Current Conditions -  °F | °C
As of 11:25 PM on Tuesday 21 Oct 2014 (Local Time) from EHGR Reporting Station
Broken Clouds Broken Clouds  
Wind Chill: 50°   Ceiling: 4300
Heat Index: 50°   Visibility: 6mi
Dew Point: 41°   Wind: 21mph
Humidity: 71%   Direction: 280°W
Pressure: 29.77"   Gusts: 33mph
Location:  51.32°N, 4.98°E
Report Text: EHGR 212125Z AUTO 28018G29KT 9999 R28/2900 FEW018TCU BKN043 BKN047 BKN053 10/05 Q1008 RETS BLU 29019G32KT 9999 SCT020 SCT030 TEMPO 27028G40KT 3500 SHRA SCT010 BKN015CB
Loading
Personal Weather Stations






























Interactive Weather Map
Tropical Storm Tracking
New forecast layout! Learn more

10-Day Weather Forecast

Advertisements
Track Severe Weather on mobile